Search METAR Data

METAR Data for ANYN:

ANYN 241600Z VRB01KT 9999 FEW020 28/24 Q1010